createdAt,value
2023-02-26T00:00:43.560Z,33.52
2023-02-26T00:03:52.418Z,33.86
2023-02-26T00:06:57.307Z,33.69
2023-02-26T00:10:03.478Z,33.64
2023-02-26T00:13:06.674Z,33.62
2023-02-26T00:16:14.759Z,33.70
2023-02-26T00:19:21.589Z,33.53
2023-02-26T00:22:26.223Z,33.55
2023-02-26T00:25:29.082Z,33.59
2023-02-26T00:28:32.090Z,33.72
2023-02-26T00:31:35.164Z,33.73
2023-02-26T00:34:40.603Z,33.52
2023-02-26T00:37:56.189Z,33.71
2023-02-26T00:40:59.245Z,33.48
2023-02-26T00:44:02.249Z,33.58
2023-02-26T00:47:09.836Z,33.32
2023-02-26T00:50:17.820Z,33.32
2023-02-26T00:53:23.342Z,33.48
2023-02-26T00:56:26.304Z,33.35
2023-02-26T00:59:31.229Z,33.41
2023-02-26T01:02:34.171Z,33.35
2023-02-26T01:05:43.750Z,33.34
2023-02-26T01:08:53.162Z,33.39
2023-02-26T01:11:56.657Z,33.59
2023-02-26T01:14:59.716Z,33.26
2023-02-26T01:18:06.644Z,33.60
2023-02-26T01:21:14.327Z,33.26
2023-02-26T01:24:18.173Z,33.36
2023-02-26T01:27:22.446Z,33.36
2023-02-26T01:30:26.047Z,33.39
2023-02-26T01:33:30.451Z,33.54
2023-02-26T01:36:37.512Z,33.40
2023-02-26T01:39:50.824Z,33.34
2023-02-26T01:42:54.668Z,33.23
2023-02-26T01:46:01.433Z,33.56
2023-02-26T01:49:04.585Z,33.44
2023-02-26T01:52:28.856Z,33.42
2023-02-26T01:55:31.701Z,33.24
2023-02-26T01:58:37.084Z,33.16
2023-02-26T02:01:40.571Z,33.19
2023-02-26T02:04:43.869Z,33.33
2023-02-26T02:07:49.314Z,33.49
2023-02-26T02:10:52.844Z,33.40
2023-02-26T02:14:04.223Z,33.54
2023-02-26T02:17:10.924Z,33.46
2023-02-26T02:20:28.436Z,33.62
2023-02-26T02:23:36.708Z,33.78
2023-02-26T02:26:43.805Z,33.75
2023-02-26T02:30:06.397Z,33.74
2023-02-26T02:33:13.887Z,33.95
2023-02-26T02:36:18.672Z,33.89
2023-02-26T02:39:24.048Z,33.95
2023-02-26T02:42:29.786Z,34.02
2023-02-26T02:45:35.658Z,34.01
2023-02-26T02:48:41.121Z,34.00
2023-02-26T02:51:46.078Z,33.85
2023-02-26T02:54:52.696Z,34.16
2023-02-26T02:58:00.664Z,34.22
2023-02-26T03:01:07.692Z,33.95
2023-02-26T03:04:13.258Z,34.13
2023-02-26T03:07:16.064Z,34.18
2023-02-26T03:10:19.155Z,34.35
2023-02-26T03:13:23.481Z,34.55
2023-02-26T03:16:37.159Z,34.31
2023-02-26T03:19:45.810Z,34.47
2023-02-26T03:22:56.093Z,34.59
2023-02-26T03:26:01.889Z,34.50
2023-02-26T03:29:08.059Z,34.65
2023-02-26T03:32:20.398Z,34.68
2023-02-26T03:35:27.297Z,34.70
2023-02-26T03:38:32.588Z,34.77
2023-02-26T03:41:42.106Z,34.71
2023-02-26T03:44:48.449Z,34.82
2023-02-26T03:47:53.858Z,34.63
2023-02-26T03:51:00.806Z,34.66
2023-02-26T03:54:06.462Z,34.91
2023-02-26T03:57:09.565Z,34.85
2023-02-26T04:00:13.468Z,34.74
2023-02-26T04:03:18.496Z,35.25
2023-02-26T04:06:30.319Z,35.08
2023-02-26T04:09:33.137Z,34.70
2023-02-26T04:12:35.949Z,35.02
2023-02-26T04:15:38.798Z,35.10
2023-02-26T04:18:42.651Z,35.24
2023-02-26T04:21:49.748Z,35.12
2023-02-26T04:24:52.511Z,35.18
2023-02-26T04:27:55.370Z,35.28
2023-02-26T04:30:59.181Z,35.14
2023-02-26T04:34:02.034Z,35.29
2023-02-26T04:37:06.186Z,35.07
2023-02-26T04:40:09.443Z,35.24
2023-02-26T04:43:12.202Z,35.19
2023-02-26T04:46:15.110Z,35.26
2023-02-26T04:49:19.921Z,35.20
2023-02-26T04:52:25.265Z,35.02
2023-02-26T04:55:31.979Z,35.06
2023-02-26T04:58:34.802Z,35.34
2023-02-26T05:01:37.922Z,35.10
2023-02-26T05:04:40.801Z,34.80
2023-02-26T05:07:44.896Z,34.75
2023-02-26T05:10:49.420Z,34.73
2023-02-26T05:13:52.145Z,34.46
2023-02-26T05:16:54.976Z,34.33
2023-02-26T05:19:57.787Z,34.12
2023-02-26T05:23:01.928Z,34.10
2023-02-26T05:26:04.680Z,33.97
2023-02-26T05:29:07.587Z,33.99
2023-02-26T05:32:13.338Z,33.87
2023-02-26T05:35:16.305Z,33.81
2023-02-26T05:38:20.458Z,33.70
2023-02-26T05:41:23.168Z,33.73
2023-02-26T05:44:26.139Z,33.67
2023-02-26T05:47:28.862Z,33.69
2023-02-26T05:50:31.675Z,33.59
2023-02-26T05:53:35.801Z,33.66
2023-02-26T05:56:40.791Z,33.39
2023-02-26T05:59:44.776Z,33.41
2023-02-26T06:02:47.791Z,33.42
2023-02-26T06:05:50.618Z,33.56
2023-02-26T06:08:54.800Z,33.50
2023-02-26T06:11:57.659Z,33.58
2023-02-26T06:15:00.416Z,33.79
2023-02-26T06:18:03.159Z,33.90
2023-02-26T06:21:07.878Z,34.01
2023-02-26T06:24:11.956Z,34.07
2023-02-26T06:27:14.767Z,34.15
2023-02-26T06:30:18.358Z,34.24
2023-02-26T06:33:21.187Z,34.29
2023-02-26T06:36:24.194Z,34.40
2023-02-26T06:39:28.488Z,34.62
2023-02-26T06:42:33.654Z,34.58
2023-02-26T06:45:36.493Z,34.50
2023-02-26T06:48:39.282Z,34.49
2023-02-26T06:51:42.359Z,34.62
2023-02-26T06:54:46.503Z,34.59
2023-02-26T06:57:49.418Z,34.67
2023-02-26T07:00:52.232Z,34.72
2023-02-26T07:03:55.054Z,34.77
2023-02-26T07:07:00.293Z,34.93
2023-02-26T07:10:04.527Z,34.78
2023-02-26T07:13:09.167Z,34.72
2023-02-26T07:16:12.620Z,34.71
2023-02-26T07:19:15.468Z,34.90
2023-02-26T07:22:21.638Z,34.96
2023-02-26T07:25:26.206Z,34.89
2023-02-26T07:28:29.447Z,34.87
2023-02-26T07:31:32.368Z,34.79
2023-02-26T07:34:35.380Z,34.89
2023-02-26T07:37:40.080Z,35.02
2023-02-26T07:40:44.167Z,35.03
2023-02-26T07:43:46.935Z,34.90
2023-02-26T07:46:52.155Z,34.96
2023-02-26T07:49:54.978Z,34.92
2023-02-26T07:52:57.756Z,35.03
2023-02-26T07:56:02.007Z,34.93
2023-02-26T07:59:04.732Z,34.91
2023-02-26T08:02:07.792Z,35.13
2023-02-26T08:05:10.834Z,35.02
2023-02-26T08:08:13.673Z,34.87
2023-02-26T08:11:17.757Z,35.02
2023-02-26T08:14:20.733Z,35.02
2023-02-26T08:17:23.507Z,34.98
2023-02-26T08:20:30.339Z,34.99
2023-02-26T08:23:33.373Z,35.10
2023-02-26T08:26:38.387Z,34.93
2023-02-26T08:29:41.127Z,34.96
2023-02-26T08:32:43.977Z,35.04
2023-02-26T08:35:47.320Z,34.86
2023-02-26T08:38:50.217Z,35.14
2023-02-26T08:41:54.467Z,35.12
2023-02-26T08:44:57.181Z,35.11
2023-02-26T08:48:02.196Z,35.21
2023-02-26T08:51:05.182Z,35.22
2023-02-26T08:54:09.096Z,35.23
2023-02-26T08:57:13.325Z,35.26
2023-02-26T09:00:18.683Z,35.22
2023-02-26T09:03:21.516Z,34.93
2023-02-26T09:06:24.504Z,34.73
2023-02-26T09:09:27.524Z,34.71
2023-02-26T09:12:31.655Z,34.38
2023-02-26T09:15:34.425Z,34.18
2023-02-26T09:18:38.418Z,34.20
2023-02-26T09:21:44.277Z,34.05
2023-02-26T09:24:47.114Z,34.04
2023-02-26T09:27:54.517Z,33.75
2023-02-26T09:30:57.427Z,33.90
2023-02-26T09:34:02.280Z,33.66
2023-02-26T09:37:05.403Z,33.64
2023-02-26T09:40:09.096Z,33.65
2023-02-26T09:43:24.235Z,33.51
2023-02-26T09:46:32.178Z,33.53
2023-02-26T09:49:46.238Z,33.43
2023-02-26T09:52:52.509Z,33.33
2023-02-26T09:55:59.124Z,33.39
2023-02-26T09:59:03.253Z,33.29
2023-02-26T10:02:08.620Z,33.41
2023-02-26T10:05:22.263Z,33.27
2023-02-26T10:08:29.491Z,33.19
2023-02-26T10:11:36.984Z,33.26
2023-02-26T10:14:44.713Z,33.20
2023-02-26T10:17:53.846Z,33.25
2023-02-26T10:20:58.580Z,33.13
2023-02-26T10:24:02.479Z,33.09
2023-02-26T10:27:07.612Z,33.13
2023-02-26T10:30:17.666Z,33.00
2023-02-26T10:33:22.277Z,33.04
2023-02-26T10:36:26.703Z,32.95
2023-02-26T10:39:32.772Z,32.77
2023-02-26T10:42:39.836Z,33.03
2023-02-26T10:45:51.610Z,33.16
2023-02-26T10:49:02.963Z,33.02
2023-02-26T10:52:12.538Z,33.01
2023-02-26T10:55:27.554Z,33.03
2023-02-26T10:58:32.132Z,32.73
2023-02-26T11:01:37.285Z,33.02
2023-02-26T11:04:40.278Z,32.91
2023-02-26T11:07:43.794Z,33.12
2023-02-26T11:10:49.404Z,33.19
2023-02-26T11:13:53.102Z,33.16
2023-02-26T11:16:59.109Z,33.41
2023-02-26T11:20:05.438Z,33.14
2023-02-26T11:23:12.353Z,33.32
2023-02-26T11:26:17.457Z,33.42
2023-02-26T11:29:21.292Z,33.48
2023-02-26T11:32:33.092Z,33.56
2023-02-26T11:35:35.880Z,33.82
2023-02-26T11:38:38.867Z,33.89
2023-02-26T11:41:46.968Z,33.80
2023-02-26T11:44:50.029Z,33.54
2023-02-26T11:47:58.825Z,33.77
2023-02-26T11:51:03.680Z,33.59
2023-02-26T11:54:21.106Z,33.39
2023-02-26T11:57:25.669Z,33.89
2023-02-26T12:00:31.751Z,34.00
2023-02-26T12:03:40.204Z,33.64
2023-02-26T12:06:43.562Z,33.84
2023-02-26T12:09:47.794Z,33.89
2023-02-26T12:12:56.198Z,33.87
2023-02-26T12:16:03.213Z,33.83
2023-02-26T12:19:13.688Z,33.81
2023-02-26T12:22:28.305Z,33.88
2023-02-26T12:25:41.120Z,33.89
2023-02-26T12:29:07.274Z,34.01
2023-02-26T12:32:24.128Z,34.06
2023-02-26T12:35:38.128Z,34.20
2023-02-26T12:38:47.348Z,34.17
2023-02-26T12:42:03.011Z,34.23
2023-02-26T12:45:13.568Z,34.19
2023-02-26T12:48:32.484Z,34.45
2023-02-26T12:51:47.280Z,34.47
2023-02-26T12:55:00.159Z,34.49
2023-02-26T12:58:15.753Z,34.39
2023-02-26T13:01:34.147Z,34.75
2023-02-26T13:04:52.423Z,35.16
2023-02-26T13:08:05.917Z,35.47
2023-02-26T13:11:16.664Z,35.51
2023-02-26T13:14:26.833Z,35.20
2023-02-26T13:17:32.437Z,35.37
2023-02-26T13:20:36.537Z,35.39
2023-02-26T13:23:47.303Z,35.62
2023-02-26T13:26:51.004Z,35.39
2023-02-26T13:29:57.751Z,35.49
2023-02-26T13:33:02.979Z,35.32
2023-02-26T13:36:09.465Z,34.84
2023-02-26T13:39:27.753Z,34.94
2023-02-26T13:42:35.777Z,34.55
2023-02-26T13:45:44.803Z,34.47
2023-02-26T13:48:53.804Z,34.25
2023-02-26T13:51:56.682Z,34.13
2023-02-26T13:55:00.868Z,34.11
2023-02-26T13:58:17.290Z,34.17
2023-02-26T14:01:20.703Z,34.39
2023-02-26T14:04:25.737Z,34.18
2023-02-26T14:07:48.646Z,34.11
2023-02-26T14:11:04.416Z,33.99
2023-02-26T14:14:11.543Z,33.89
2023-02-26T14:17:29.335Z,33.83
2023-02-26T14:20:33.059Z,33.54
2023-02-26T14:23:37.984Z,33.50
2023-02-26T14:26:47.968Z,33.45
2023-02-26T14:30:00.426Z,33.73
2023-02-26T14:33:11.034Z,33.63
2023-02-26T14:36:19.738Z,33.80
2023-02-26T14:39:26.796Z,33.94
2023-02-26T14:42:34.907Z,33.85
2023-02-26T14:45:41.003Z,33.76
2023-02-26T14:48:43.910Z,33.50
2023-02-26T14:51:52.454Z,33.46
2023-02-26T14:55:02.537Z,33.51
2023-02-26T14:58:15.400Z,33.33
2023-02-26T15:01:38.211Z,33.67
2023-02-26T15:04:56.131Z,33.58
2023-02-26T15:08:18.090Z,33.76
2023-02-26T15:11:28.562Z,33.59
2023-02-26T15:14:46.321Z,33.60
2023-02-26T15:17:56.276Z,33.85
2023-02-26T15:21:05.878Z,33.63
2023-02-26T15:24:11.324Z,33.62
2023-02-26T15:27:16.776Z,33.71
2023-02-26T15:30:19.821Z,33.76
2023-02-26T15:33:25.186Z,33.73
2023-02-26T15:36:30.234Z,33.73
2023-02-26T15:39:33.035Z,33.73
2023-02-26T15:42:38.683Z,33.46
2023-02-26T15:45:42.806Z,33.75
2023-02-26T15:48:48.368Z,33.58
2023-02-26T15:51:54.264Z,33.34
2023-02-26T15:54:59.146Z,33.52
2023-02-26T15:58:02.125Z,33.47
2023-02-26T16:01:05.727Z,33.37
2023-02-26T16:04:13.824Z,33.56
2023-02-26T16:07:16.619Z,33.43
2023-02-26T16:10:28.308Z,33.44
2023-02-26T16:13:32.914Z,33.44
2023-02-26T16:16:40.119Z,33.57
2023-02-26T16:19:45.976Z,33.37
2023-02-26T16:22:51.094Z,33.43
2023-02-26T16:25:55.672Z,33.61
2023-02-26T16:29:02.225Z,33.56
2023-02-26T16:32:06.167Z,33.67
2023-02-26T16:35:17.955Z,33.77
2023-02-26T16:38:22.148Z,33.85
2023-02-26T16:41:25.865Z,34.42
2023-02-26T16:44:40.977Z,34.36
2023-02-26T16:47:44.940Z,34.67
2023-02-26T16:50:50.626Z,34.64
2023-02-26T16:53:55.338Z,34.92
2023-02-26T16:56:59.660Z,35.35
2023-02-26T17:00:06.789Z,36.61
2023-02-26T17:03:12.640Z,35.36
2023-02-26T17:06:23.338Z,35.48
2023-02-26T17:09:37.170Z,35.30
2023-02-26T17:12:43.471Z,35.32
2023-02-26T17:15:47.627Z,35.32
2023-02-26T17:18:50.546Z,35.55
2023-02-26T17:21:57.665Z,35.84
2023-02-26T17:25:00.425Z,35.62
2023-02-26T17:28:03.324Z,35.57
2023-02-26T17:31:06.206Z,35.87
2023-02-26T17:34:11.171Z,35.86
2023-02-26T17:37:15.669Z,35.72
2023-02-26T17:40:20.542Z,35.68
2023-02-26T17:43:23.785Z,35.77
2023-02-26T17:46:33.899Z,35.83
2023-02-26T17:49:36.649Z,35.66
2023-02-26T17:52:49.983Z,35.77
2023-02-26T17:55:53.625Z,35.98
2023-02-26T17:58:56.642Z,35.92
2023-02-26T18:02:01.028Z,35.89
2023-02-26T18:05:03.903Z,35.77
2023-02-26T18:08:10.402Z,35.96
2023-02-26T18:11:14.696Z,35.77
2023-02-26T18:14:17.499Z,35.97
2023-02-26T18:17:23.515Z,35.71
2023-02-26T18:20:27.389Z,35.58
2023-02-26T18:23:31.597Z,35.50
2023-02-26T18:26:34.579Z,35.60
2023-02-26T18:29:37.353Z,35.27
2023-02-26T18:32:40.188Z,35.11
2023-02-26T18:35:46.019Z,35.00
2023-02-26T18:38:50.218Z,34.83
2023-02-26T18:41:52.988Z,34.85
2023-02-26T18:44:55.844Z,34.73
2023-02-26T18:47:58.554Z,34.46
2023-02-26T18:51:01.385Z,34.50
2023-02-26T18:54:08.469Z,34.40
2023-02-26T18:57:11.371Z,34.54
2023-02-26T19:00:15.284Z,34.56
2023-02-26T19:03:18.070Z,34.58
2023-02-26T19:06:20.836Z,34.67
2023-02-26T19:09:24.979Z,34.35
2023-02-26T19:12:27.745Z,34.54
2023-02-26T19:15:30.574Z,34.51
2023-02-26T19:18:33.327Z,34.55
2023-02-26T19:21:39.332Z,34.61
2023-02-26T19:24:44.027Z,34.99
2023-02-26T19:27:46.805Z,34.88
2023-02-26T19:30:49.572Z,35.21
2023-02-26T19:33:54.564Z,35.08
2023-02-26T19:36:57.300Z,35.22
2023-02-26T19:40:01.543Z,35.19
2023-02-26T19:43:04.328Z,35.16
2023-02-26T19:46:07.149Z,35.03
2023-02-26T19:49:10.985Z,34.97
2023-02-26T19:52:13.807Z,35.10
2023-02-26T19:55:18.281Z,34.98
2023-02-26T19:58:21.105Z,35.17
2023-02-26T20:01:23.984Z,35.03
2023-02-26T20:04:26.856Z,35.01
2023-02-26T20:07:30.740Z,35.27
2023-02-26T20:10:34.890Z,35.11
2023-02-26T20:13:37.952Z,35.24
2023-02-26T20:16:42.553Z,35.35
2023-02-26T20:19:48.353Z,35.27
2023-02-26T20:22:51.162Z,35.23
2023-02-26T20:25:57.119Z,35.38
2023-02-26T20:29:00.773Z,35.46
2023-02-26T20:32:03.767Z,35.49
2023-02-26T20:35:07.181Z,35.41
2023-02-26T20:38:09.970Z,35.58
2023-02-26T20:41:16.441Z,35.56
2023-02-26T20:44:19.584Z,35.56
2023-02-26T20:47:22.483Z,35.36
2023-02-26T20:50:25.287Z,35.26
2023-02-26T20:53:28.344Z,35.13
2023-02-26T20:56:32.555Z,34.87
2023-02-26T20:59:38.442Z,34.84
2023-02-26T21:02:41.622Z,34.67
2023-02-26T21:05:46.514Z,34.59
2023-02-26T21:08:49.250Z,34.41
2023-02-26T21:11:55.465Z,34.45
2023-02-26T21:14:58.588Z,34.41
2023-02-26T21:18:01.345Z,34.37
2023-02-26T21:21:04.979Z,34.44
2023-02-26T21:24:08.080Z,34.38
2023-02-26T21:27:12.601Z,34.36
2023-02-26T21:30:16.038Z,34.14
2023-02-26T21:33:18.878Z,34.15
2023-02-26T21:36:22.007Z,34.27
2023-02-26T21:39:25.532Z,34.10
2023-02-26T21:42:30.329Z,34.02
2023-02-26T21:45:34.338Z,34.82
2023-02-26T21:48:37.202Z,34.69
2023-02-26T21:51:40.053Z,34.64
2023-02-26T21:54:44.704Z,34.59
2023-02-26T21:57:48.870Z,34.45
2023-02-26T22:00:51.695Z,34.58
2023-02-26T22:03:54.474Z,34.34
2023-02-26T22:06:57.298Z,34.47
2023-02-26T22:10:00.093Z,34.63
2023-02-26T22:13:05.628Z,34.43
2023-02-26T22:16:08.693Z,34.35
2023-02-26T22:19:11.513Z,34.30
2023-02-26T22:22:16.022Z,34.47
2023-02-26T22:25:18.944Z,34.41
2023-02-26T22:28:23.098Z,34.56
2023-02-26T22:31:26.205Z,34.14
2023-02-26T22:34:33.230Z,34.17
2023-02-26T22:37:36.010Z,34.33
2023-02-26T22:40:39.164Z,34.24
2023-02-26T22:43:43.565Z,34.23
2023-02-26T22:46:50.140Z,34.09
2023-02-26T22:49:52.896Z,34.25
2023-02-26T22:52:55.652Z,34.01
2023-02-26T22:55:58.485Z,34.04
2023-02-26T22:59:04.630Z,34.00
2023-02-26T23:02:07.449Z,33.95
2023-02-26T23:05:10.549Z,33.87
2023-02-26T23:08:13.289Z,33.62
2023-02-26T23:11:16.100Z,33.56
2023-02-26T23:14:20.553Z,33.67
2023-02-26T23:17:23.319Z,33.92
2023-02-26T23:20:26.157Z,35.02
2023-02-26T23:23:28.996Z,37.79
2023-02-26T23:26:34.337Z,38.16
2023-02-26T23:29:38.502Z,37.57
2023-02-26T23:32:42.501Z,38.23
2023-02-26T23:35:45.331Z,38.63
2023-02-26T23:38:50.830Z,38.86
2023-02-26T23:41:53.537Z,38.17
2023-02-26T23:44:57.743Z,38.41
2023-02-26T23:48:00.449Z,39.00
2023-02-26T23:51:03.311Z,39.39
2023-02-26T23:54:06.109Z,38.65
2023-02-26T23:57:08.848Z,39.45
